New Burlington, Indiana
Current Conditions -  °F | °C
As of 12:53 PM on Friday 19 Dec 2014 (Local Time) from KMIE Reporting Station
Haze Haze  
Wind Chill: 28°   Ceiling: 2700
Heat Index: 28°   Visibility: 6mi
Dew Point: 23°   Wind: 3mph
Humidity: 81%   Direction: 310°NW
Pressure: 30.25"   Gusts: NA
Location:  40.1286°N, 85.3767°W
Report Text: KMIE 191753Z 31003KT 6SM HZ FEW012 OVC027 M02/M05 A3025 RMK AO2 SLP251 T10221050 11017 21033 58014
Loading
Personal Weather Stations






























Interactive Weather Map New forecast layout! Learn more

10-Day Weather Forecast

Advertisements
Track Severe Weather on mobile